createdAt,value
2022-08-26T00:03:26.802Z,23.90
2022-08-26T00:08:29.880Z,23.80
2022-08-26T00:13:33.801Z,23.70
2022-08-26T00:18:38.862Z,23.70
2022-08-26T00:23:43.076Z,23.50
2022-08-26T00:28:45.425Z,23.80
2022-08-26T00:33:47.609Z,23.60
2022-08-26T00:38:51.987Z,23.50
2022-08-26T00:43:54.208Z,23.40
2022-08-26T00:49:11.948Z,23.40
2022-08-26T00:54:16.034Z,23.00
2022-08-26T00:59:18.547Z,23.30
2022-08-26T01:04:23.413Z,23.10
2022-08-26T01:09:25.839Z,23.00
2022-08-26T01:14:31.446Z,22.90
2022-08-26T01:19:41.674Z,22.80
2022-08-26T01:24:43.895Z,22.90
2022-08-26T01:29:48.750Z,22.80
2022-08-26T01:34:52.796Z,22.60
2022-08-26T01:39:57.815Z,22.70
2022-08-26T01:45:15.072Z,22.40
2022-08-26T01:50:28.241Z,22.60
2022-08-26T01:55:34.275Z,22.50
2022-08-26T02:00:38.031Z,22.50
2022-08-26T02:05:40.360Z,22.40
2022-08-26T02:10:45.751Z,22.30
2022-08-26T02:15:49.329Z,22.30
2022-08-26T02:20:53.940Z,22.20
2022-08-26T02:26:17.826Z,22.10
2022-08-26T02:31:24.471Z,22.10
2022-08-26T02:36:28.574Z,22.20
2022-08-26T02:41:30.998Z,22.20
2022-08-26T02:46:35.448Z,22.00
2022-08-26T02:51:39.502Z,22.00
2022-08-26T02:56:42.740Z,22.10
2022-08-26T03:01:45.287Z,22.00
2022-08-26T03:06:52.950Z,22.00
2022-08-26T03:11:55.474Z,21.80
2022-08-26T03:16:57.973Z,21.80
2022-08-26T03:22:02.127Z,21.50
2022-08-26T03:27:07.284Z,21.70
2022-08-26T03:32:09.703Z,21.70
2022-08-26T03:37:12.796Z,21.60
2022-08-26T03:42:14.985Z,21.80
2022-08-26T03:47:17.803Z,21.80
2022-08-26T03:52:19.949Z,21.60
2022-08-26T03:57:22.158Z,21.50
2022-08-26T04:02:24.913Z,21.30
2022-08-26T04:07:27.986Z,21.60
2022-08-26T04:12:37.176Z,21.30
2022-08-26T04:17:39.416Z,21.40
2022-08-26T04:22:42.384Z,21.30
2022-08-26T04:27:44.514Z,21.30
2022-08-26T04:32:46.739Z,21.00
2022-08-26T04:37:50.379Z,21.10
2022-08-26T04:42:53.476Z,21.30
2022-08-26T04:47:58.945Z,21.20
2022-08-26T04:53:01.574Z,21.00
2022-08-26T04:58:03.753Z,20.60
2022-08-26T05:03:06.266Z,20.70
2022-08-26T05:08:11.422Z,21.00
2022-08-26T05:13:15.766Z,20.90
2022-08-26T05:18:21.326Z,21.00
2022-08-26T05:23:25.114Z,21.10
2022-08-26T05:28:29.339Z,21.20
2022-08-26T05:33:31.513Z,21.30
2022-08-26T05:38:35.190Z,21.40
2022-08-26T05:43:38.314Z,21.30
2022-08-26T05:48:41.297Z,21.20
2022-08-26T05:53:54.939Z,21.40
2022-08-26T05:58:58.529Z,21.40
2022-08-26T06:04:02.357Z,21.60
2022-08-26T06:09:06.999Z,21.40
2022-08-26T06:14:13.263Z,21.90
2022-08-26T06:19:17.165Z,22.10
2022-08-26T06:24:37.838Z,22.30
2022-08-26T06:29:40.359Z,22.50
2022-08-26T06:34:42.543Z,23.10
2022-08-26T06:39:45.586Z,23.10
2022-08-26T06:44:47.771Z,23.50
2022-08-26T06:49:50.324Z,23.70
2022-08-26T06:54:53.647Z,23.20
2022-08-26T06:59:56.220Z,24.50
2022-08-26T07:04:58.444Z,24.40
2022-08-26T07:10:00.675Z,25.20
2022-08-26T07:15:04.603Z,25.50
2022-08-26T07:20:08.774Z,25.80
2022-08-26T07:25:11.359Z,25.80
2022-08-26T07:30:14.909Z,26.20
2022-08-26T07:35:17.517Z,26.40
2022-08-26T07:40:20.247Z,26.50
2022-08-26T07:45:22.572Z,26.60
2022-08-26T07:50:49.504Z,26.70
2022-08-26T07:55:49.323Z,27.00
2022-08-26T08:00:52.328Z,27.30
2022-08-26T08:05:56.741Z,27.60
2022-08-26T08:10:59.655Z,27.80
2022-08-26T08:16:02.164Z,28.10
2022-08-26T08:21:20.963Z,27.90
2022-08-26T08:26:42.727Z,28.60
2022-08-26T08:31:56.853Z,28.60
2022-08-26T08:37:12.584Z,29.00
2022-08-26T08:42:37.979Z,29.30
2022-08-26T08:47:47.298Z,29.50
2022-08-26T08:53:04.409Z,29.70
2022-08-26T08:58:19.680Z,29.90
2022-08-26T09:03:42.912Z,30.20
2022-08-26T09:08:50.073Z,30.40
2022-08-26T09:13:54.842Z,30.60
2022-08-26T09:19:15.078Z,30.80
2022-08-26T09:24:28.748Z,30.90
2022-08-26T09:29:41.194Z,31.00
2022-08-26T09:34:54.437Z,31.10
2022-08-26T09:40:17.390Z,31.30
2022-08-26T09:45:28.452Z,31.40
2022-08-26T09:50:33.570Z,31.50
2022-08-26T09:55:37.845Z,31.60
2022-08-26T10:00:42.910Z,31.80
2022-08-26T10:06:59.564Z,32.00
2022-08-26T10:12:16.288Z,32.20
2022-08-26T10:17:36.358Z,32.40
2022-08-26T10:23:09.312Z,32.50
2022-08-26T10:28:29.972Z,32.70
2022-08-26T10:33:32.611Z,32.80
2022-08-26T10:38:40.131Z,33.00
2022-08-26T10:43:57.412Z,33.20
2022-08-26T10:49:06.606Z,33.30
2022-08-26T10:54:31.961Z,33.40
2022-08-26T10:59:48.376Z,33.60
2022-08-26T11:11:05.567Z,34.00
2022-08-26T11:16:08.768Z,34.10
2022-08-26T11:21:50.844Z,34.30
2022-08-26T11:26:56.329Z,34.50
2022-08-26T11:31:59.108Z,34.60
2022-08-26T11:37:04.993Z,34.80
2022-08-26T11:42:25.239Z,34.90
2022-08-26T11:47:31.792Z,35.10
2022-08-26T11:52:33.932Z,35.30
2022-08-26T11:57:47.463Z,35.60
2022-08-26T12:02:50.573Z,36.00
2022-08-26T12:07:55.386Z,36.20
2022-08-26T12:13:00.385Z,36.50
2022-08-26T12:18:29.434Z,36.60
2022-08-26T12:23:47.147Z,37.00
2022-08-26T12:29:02.306Z,37.20
2022-08-26T12:34:22.765Z,37.60
2022-08-26T12:39:36.999Z,37.80
2022-08-26T12:44:54.223Z,38.00
2022-08-26T12:50:12.021Z,38.10
2022-08-26T12:55:42.679Z,38.20
2022-08-26T13:00:53.227Z,38.40
2022-08-26T13:06:31.285Z,38.70
2022-08-26T13:11:41.046Z,39.00
2022-08-26T13:16:46.000Z,39.20
2022-08-26T13:21:52.805Z,39.50
2022-08-26T13:26:55.919Z,39.90
2022-08-26T13:31:59.255Z,40.20
2022-08-26T13:37:01.530Z,40.50
2022-08-26T13:42:03.896Z,40.50
2022-08-26T13:47:06.737Z,40.30
2022-08-26T13:52:08.963Z,40.20
2022-08-26T13:57:11.143Z,40.30
2022-08-26T14:02:14.808Z,40.40
2022-08-26T14:07:17.353Z,40.40
2022-08-26T14:12:19.752Z,40.30
2022-08-26T14:17:24.485Z,40.30
2022-08-26T14:22:26.720Z,40.30
2022-08-26T14:27:29.316Z,40.30
2022-08-26T14:32:32.603Z,40.80
2022-08-26T14:37:34.799Z,41.20
2022-08-26T14:42:37.154Z,41.30
2022-08-26T14:47:40.804Z,40.90
2022-08-26T14:53:03.216Z,40.10
2022-08-26T14:58:05.764Z,39.30
2022-08-26T15:03:08.231Z,38.50
2022-08-26T15:08:11.110Z,37.70
2022-08-26T15:13:13.433Z,36.80
2022-08-26T15:18:15.599Z,35.80
2022-08-26T15:23:17.729Z,34.90
2022-08-26T15:28:20.491Z,34.00
2022-08-26T15:33:24.614Z,33.40
2022-08-26T15:38:32.923Z,32.90
2022-08-26T15:43:38.554Z,32.60
2022-08-26T15:48:40.776Z,32.40
2022-08-26T15:53:43.245Z,32.20
2022-08-26T15:58:45.502Z,32.00
2022-08-26T16:03:48.310Z,31.80
2022-08-26T16:08:50.530Z,31.50
2022-08-26T16:13:52.864Z,31.10
2022-08-26T16:18:55.114Z,30.90
2022-08-26T16:23:57.903Z,30.60
2022-08-26T16:29:14.307Z,30.50
2022-08-26T16:34:16.501Z,30.40
2022-08-26T16:39:18.759Z,30.30
2022-08-26T16:44:22.094Z,30.30
2022-08-26T16:49:24.344Z,30.30
2022-08-26T16:54:27.153Z,30.30
2022-08-26T16:59:31.431Z,30.30
2022-08-26T17:04:33.708Z,30.30
2022-08-26T17:09:37.349Z,30.20
2022-08-26T17:14:43.580Z,30.10
2022-08-26T17:19:48.019Z,30.00
2022-08-26T17:24:50.296Z,29.80
2022-08-26T17:29:52.503Z,29.70
2022-08-26T17:34:54.669Z,29.50
2022-08-26T17:39:56.990Z,29.40
2022-08-26T17:44:59.434Z,29.30
2022-08-26T17:50:01.845Z,29.10
2022-08-26T17:55:05.928Z,29.10
2022-08-26T18:00:12.660Z,29.00
2022-08-26T18:05:17.488Z,28.70
2022-08-26T18:10:20.746Z,28.70
2022-08-26T18:15:22.930Z,28.60
2022-08-26T18:20:25.117Z,28.60
2022-08-26T18:25:27.428Z,28.50
2022-08-26T18:30:29.711Z,28.30
2022-08-26T18:35:31.819Z,28.20
2022-08-26T18:40:34.181Z,28.20
2022-08-26T18:45:37.192Z,28.10
2022-08-26T18:50:40.976Z,28.00
2022-08-26T18:55:43.577Z,27.90
2022-08-26T19:00:45.853Z,27.80
2022-08-26T19:05:48.007Z,27.70
2022-08-26T19:10:50.834Z,27.90
2022-08-26T19:15:52.983Z,27.60
2022-08-26T19:20:55.147Z,27.60
2022-08-26T19:25:58.723Z,27.50
2022-08-26T19:31:05.137Z,27.50
2022-08-26T19:36:11.460Z,27.40
2022-08-26T19:41:20.380Z,27.30
2022-08-26T19:46:23.525Z,27.30
2022-08-26T19:51:29.002Z,27.20
2022-08-26T19:56:32.015Z,27.10
2022-08-26T20:01:34.548Z,27.10
2022-08-26T20:06:36.749Z,27.00
2022-08-26T20:11:39.257Z,26.90
2022-08-26T20:16:42.299Z,26.80
2022-08-26T20:21:45.576Z,26.80
2022-08-26T20:26:49.702Z,26.70
2022-08-26T20:31:53.215Z,26.70
2022-08-26T20:36:56.170Z,26.60
2022-08-26T20:41:58.413Z,26.50
2022-08-26T20:47:00.634Z,26.50
2022-08-26T20:52:04.167Z,26.40
2022-08-26T20:57:06.856Z,26.20
2022-08-26T21:02:09.825Z,25.80
2022-08-26T21:07:12.093Z,26.00
2022-08-26T21:12:14.296Z,25.90
2022-08-26T21:17:16.621Z,25.80
2022-08-26T21:22:19.642Z,25.70
2022-08-26T21:27:26.420Z,25.60
2022-08-26T21:32:31.466Z,25.60
2022-08-26T21:37:33.741Z,25.50
2022-08-26T21:42:36.476Z,25.40
2022-08-26T21:47:39.501Z,25.40
2022-08-26T21:52:41.805Z,25.30
2022-08-26T21:57:44.749Z,25.30
2022-08-26T22:02:50.216Z,25.30
2022-08-26T22:07:52.403Z,25.30
2022-08-26T22:12:54.611Z,25.20
2022-08-26T22:17:56.767Z,25.20
2022-08-26T22:22:59.170Z,24.80
2022-08-26T22:28:01.526Z,25.10
2022-08-26T22:33:04.520Z,25.00
2022-08-26T22:38:07.710Z,25.00
2022-08-26T22:43:10.591Z,24.90
2022-08-26T22:48:15.853Z,24.70
2022-08-26T22:53:18.489Z,24.50
2022-08-26T22:58:20.737Z,24.70
2022-08-26T23:03:32.599Z,24.50
2022-08-26T23:08:35.057Z,24.80
2022-08-26T23:13:38.294Z,24.70
2022-08-26T23:18:41.322Z,24.70
2022-08-26T23:23:45.045Z,24.60
2022-08-26T23:28:47.263Z,24.60
2022-08-26T23:34:08.275Z,24.50
2022-08-26T23:39:10.549Z,24.40
2022-08-26T23:44:12.868Z,24.50
2022-08-26T23:49:15.063Z,24.50
2022-08-26T23:54:17.448Z,24.40
2022-08-26T23:59:19.979Z,24.40
